Time;durP1;ratioP1;P1;durP2;ratioP2;P2;SDS_P1;SDS_P2;PMS_P1;PMS_P2;Temp;Humidity;BMP_temperature;BMP_pressure;BME280_temperature;BME280_humidity;BME280_pressure;Samples;Min_cycle;Max_cycle;Signal;HPM_P1;HPM_P2
2023/03/30 00:01:33;;;;;;;3.90;1.40;;;14.80;67.90;15.00;96301.00;;;;5107365;27;20197;-79
2023/03/30 00:04:01;;;;;;;2.80;1.60;;;14.80;67.90;15.00;96294.00;;;;5128980;27;20191;-80
2023/03/30 00:06:30;;;;;;;2.63;1.50;;;14.80;68.00;15.00;96284.00;;;;5119498;28;20191;-80
2023/03/30 00:09:00;;;;;;;1.87;1.33;;;14.80;68.00;15.00;96283.00;;;;5136544;27;20213;-80
2023/03/30 00:11:33;;;;;;;1.40;1.30;;;14.80;68.00;15.00;96279.00;;;;5115559;28;20306;-80
2023/03/30 00:14:02;;;;;;;3.50;1.80;;;14.80;67.90;15.00;96280.00;;;;5120368;28;20697;-80
2023/03/30 00:16:29;;;;;;;4.47;2.00;;;14.80;67.90;14.90;96275.00;;;;5138173;28;20253;-80
2023/03/30 00:18:57;;;;;;;2.03;1.60;;;14.80;68.00;14.90;96270.00;;;;5140863;28;20249;-80
2023/03/30 00:21:25;;;;;;;1.77;1.10;;;14.80;68.10;14.90;96276.00;;;;5107364;28;20403;-80
2023/03/30 00:23:54;;;;;;;2.40;1.60;;;14.80;68.10;14.90;96273.00;;;;5127996;28;20685;-79
2023/03/30 00:26:22;;;;;;;2.07;1.67;;;14.80;68.20;14.90;96271.00;;;;5120015;28;20202;-80
2023/03/30 00:28:50;;;;;;;1.60;1.40;;;14.80;68.10;14.90;96269.00;;;;5135447;28;20194;-79
2023/03/30 00:31:17;;;;;;;2.97;1.50;;;14.70;68.10;14.90;96264.00;;;;5135345;27;20651;-80
2023/03/30 00:33:44;;;;;;;2.07;1.40;;;14.70;68.10;14.90;96260.00;;;;5137369;28;20280;-80
2023/03/30 00:36:11;;;;;;;1.43;1.33;;;14.80;68.20;14.90;96256.00;;;;5103219;28;20274;-80
2023/03/30 00:38:40;;;;;;;2.40;1.40;;;14.70;68.20;14.90;96261.00;;;;5118892;28;20206;-79
2023/03/30 00:41:09;;;;;;;2.83;1.60;;;14.70;68.20;14.80;96252.00;;;;5106581;28;20262;-79
2023/03/30 00:43:55;;;;;;;3.00;1.40;;;14.70;68.30;14.90;96245.00;;;;5132031;28;20616;-81
2023/03/30 00:46:24;;;;;;;1.50;1.20;;;14.70;68.30;14.90;96245.00;;;;5125252;28;20198;-81
2023/03/30 00:48:56;;;;;;;2.90;1.47;;;14.70;68.30;14.90;96247.00;;;;5125109;28;20206;-80
2023/03/30 00:51:26;;;;;;;2.47;1.20;;;14.70;68.30;14.90;96245.00;;;;5136707;28;20198;-81
2023/03/30 00:53:59;;;;;;;3.40;1.40;;;14.70;68.30;14.90;96241.00;;;;5135703;28;20198;-81
2023/03/30 00:56:31;;;;;;;3.83;1.53;;;14.70;68.30;14.90;96243.00;;;;5142528;28;20194;-80
2023/03/30 00:59:01;;;;;;;2.73;1.50;;;14.70;68.30;14.90;96234.00;;;;5107854;28;20218;-80
2023/03/30 01:01:32;;;;;;;2.10;1.40;;;14.70;68.20;14.80;96233.00;;;;5113019;28;20228;-80
2023/03/30 01:04:04;;;;;;;2.03;1.60;;;14.70;68.30;14.80;96232.00;;;;5131283;28;20206;-80
2023/03/30 01:06:34;;;;;;;2.17;1.50;;;14.70;68.30;14.80;96220.00;;;;5099198;28;20664;-80
2023/03/30 01:09:02;;;;;;;1.70;1.40;;;14.70;68.30;14.80;96227.00;;;;5116927;28;20610;-82
2023/03/30 01:11:31;;;;;;;1.97;1.57;;;14.70;68.30;14.80;96214.00;;;;5108830;28;20228;-80
2023/03/30 01:14:04;;;;;;;2.57;1.60;;;14.70;68.40;14.80;96217.00;;;;5116930;28;20301;-80
2023/03/30 01:16:44;;;;;;;1.67;1.27;;;14.60;68.30;14.80;96220.00;;;;5110504;28;20219;-80
2023/03/30 01:20:02;;;;;;;1.40;1.30;;;14.60;68.50;14.80;96219.00;;;;5081271;28;20264;-80
2023/03/30 01:23:04;;;;;;;1.40;1.30;;;14.60;68.80;14.70;96219.00;;;;5129876;27;20210;-80
2023/03/30 01:25:58;;;;;;;2.63;1.40;;;14.60;68.80;14.80;96215.00;;;;5135907;27;20281;-81
2023/03/30 01:28:43;;;;;;;2.63;1.40;;;14.60;68.60;14.70;96217.00;;;;5102631;28;20195;-80
2023/03/30 01:31:37;;;;;;;3.60;1.73;;;14.70;68.80;14.70;96217.00;;;;5117037;27;20224;-80
2023/03/30 01:34:50;;;;;;;1.13;0.97;;;14.60;68.80;14.70;96216.00;;;;5125645;27;20222;-80
2023/03/30 01:38:05;;;;;;;5.60;1.33;;;14.60;68.80;14.70;96211.00;;;;5121084;27;20190;-79
2023/03/30 01:40:43;;;;;;;2.63;1.27;;;14.60;68.80;14.70;96207.00;;;;5119975;27;20220;-81
2023/03/30 01:43:18;;;;;;;2.10;1.30;;;14.60;68.50;14.70;96207.00;;;;5113734;27;20193;-80
2023/03/30 01:45:55;;;;;;;4.97;1.67;;;14.50;68.50;14.70;96213.00;;;;5109731;27;20641;-80
2023/03/30 01:48:34;;;;;;;3.67;1.07;;;14.50;68.50;14.70;96204.00;;;;5117587;27;20267;-80
2023/03/30 01:51:07;;;;;;;2.87;1.00;;;14.50;68.70;14.70;96203.00;;;;5115678;28;20222;-80
2023/03/30 01:53:46;;;;;;;2.53;1.10;;;14.50;68.60;14.70;96188.00;;;;5116904;27;20200;-80
2023/03/30 01:56:23;;;;;;;2.37;1.00;;;14.50;68.70;14.70;96191.00;;;;5118777;27;20243;-80
2023/03/30 01:58:55;;;;;;;2.93;1.40;;;14.50;68.70;14.70;96197.00;;;;5120379;27;20218;-80
2023/03/30 02:01:24;;;;;;;1.37;0.97;;;14.50;68.60;14.70;96183.00;;;;5117203;27;20282;-80
2023/03/30 02:03:57;;;;;;;2.40;1.07;;;14.50;68.60;14.70;96189.00;;;;5125344;27;20762;-80
2023/03/30 02:06:38;;;;;;;3.33;1.10;;;14.50;68.60;14.70;96191.00;;;;5141292;27;20198;-80
2023/03/30 02:09:10;;;;;;;3.43;1.33;;;14.50;68.60;14.70;96193.00;;;;5102479;28;20214;-80
2023/03/30 02:11:44;;;;;;;2.80;1.10;;;14.50;68.60;14.70;96201.00;;;;5132992;27;20246;-80
2023/03/30 02:14:18;;;;;;;1.60;1.17;;;14.50;68.70;14.70;96201.00;;;;5129221;27;20196;-80
2023/03/30 02:16:49;;;;;;;2.27;0.93;;;14.50;68.70;14.70;96198.00;;;;5139919;27;20200;-79
2023/03/30 02:19:17;;;;;;;3.23;1.20;;;14.50;68.60;14.70;96205.00;;;;5114541;27;20218;-80
2023/03/30 02:21:45;;;;;;;1.80;0.93;;;14.50;68.50;14.60;96203.00;;;;5119048;28;20203;-80
2023/03/30 02:24:18;;;;;;;3.60;1.60;;;14.50;68.30;14.60;96201.00;;;;5117346;27;20195;-80
2023/03/30 02:26:51;;;;;;;3.70;1.40;;;14.50;68.30;14.60;96202.00;;;;5118730;28;20198;-80
2023/03/30 02:29:21;;;;;;;2.40;0.90;;;14.50;68.30;14.50;96202.00;;;;5123791;27;20309;-81
2023/03/30 02:31:54;;;;;;;2.60;1.10;;;14.40;68.10;14.50;96213.00;;;;5122128;27;20214;-79
2023/03/30 02:34:44;;;;;;;2.30;0.80;;;14.40;68.20;14.50;96223.00;;;;5121393;27;20285;-81
2023/03/30 02:37:43;;;;;;;2.37;1.00;;;14.40;68.50;14.50;96218.00;;;;5134912;27;20659;-80
2023/03/30 02:40:30;;;;;;;2.07;1.33;;;14.40;68.60;14.50;96228.00;;;;5103696;28;20242;-79
2023/03/30 02:43:27;;;;;;;1.67;0.83;;;14.40;68.70;14.50;96231.00;;;;5108947;27;20199;-80
2023/03/30 02:46:16;;;;;;;4.50;1.30;;;14.40;68.80;14.50;96238.00;;;;5101733;28;20217;-80
2023/03/30 02:48:57;;;;;;;2.03;1.30;;;14.40;68.70;14.50;96230.00;;;;5126829;27;20587;-80
2023/03/30 02:51:41;;;;;;;2.23;1.17;;;14.40;68.70;14.50;96241.00;;;;5120532;27;20318;-80
2023/03/30 02:54:24;;;;;;;1.40;1.13;;;14.40;68.80;14.60;96234.00;;;;5124566;27;20237;-81
2023/03/30 02:57:02;;;;;;;2.63;1.17;;;14.40;68.80;14.60;96228.00;;;;5126610;27;20258;-80
2023/03/30 02:59:38;;;;;;;3.27;1.23;;;14.40;68.80;14.60;96238.00;;;;5122872;27;20225;-79
2023/03/30 03:02:13;;;;;;;5.60;1.57;;;14.40;68.90;14.60;96260.00;;;;5127603;27;20288;-80
2023/03/30 03:04:42;;;;;;;2.53;1.37;;;14.40;68.90;14.60;96238.00;;;;5138508;27;20195;-79
2023/03/30 03:07:12;;;;;;;4.70;1.40;;;14.40;68.90;14.60;96245.00;;;;5135740;27;20199;-81
2023/03/30 03:09:40;;;;;;;3.53;1.10;;;14.40;69.20;14.60;96240.00;;;;5122706;27;20591;-80
2023/03/30 03:12:08;;;;;;;2.23;1.40;;;14.40;69.50;14.60;96222.00;;;;5127462;27;20256;-80
2023/03/30 03:14:37;;;;;;;1.93;1.20;;;14.40;69.50;14.50;96227.00;;;;5125000;27;20224;-80
2023/03/30 03:17:05;;;;;;;2.97;1.30;;;14.40;69.60;14.50;96235.00;;;;5131568;27;20202;-80
2023/03/30 03:19:33;;;;;;;2.33;1.13;;;14.40;69.60;14.50;96221.00;;;;5131994;27;20244;-80
2023/03/30 03:22:00;;;;;;;2.23;1.43;;;14.40;69.90;14.40;96215.00;;;;5138122;27;20229;-79
2023/03/30 03:24:28;;;;;;;2.43;1.40;;;14.40;70.00;14.50;96198.00;;;;5142793;27;20684;-80
2023/03/30 03:26:56;;;;;;;2.27;1.50;;;14.40;70.00;14.40;96223.00;;;;5143919;27;20191;-79
2023/03/30 03:29:24;;;;;;;3.40;1.20;;;14.30;70.20;14.40;96227.00;;;;5125533;28;20218;-82
2023/03/30 03:31:52;;;;;;;4.43;1.43;;;14.30;70.50;14.40;96230.00;;;;5117654;27;20297;-80
2023/03/30 03:34:20;;;;;;;3.50;1.30;;;14.30;70.70;14.50;96232.00;;;;5116423;27;20631;-81
2023/03/30 03:36:51;;;;;;;3.60;1.40;;;14.30;70.80;14.50;96216.00;;;;5126594;27;20681;-80
2023/03/30 03:39:18;;;;;;;3.23;1.33;;;14.30;71.00;14.50;96202.00;;;;5124832;27;20224;-79
2023/03/30 03:41:45;;;;;;;3.53;1.67;;;14.30;71.20;14.50;96200.00;;;;5127128;27;20401;-79
2023/03/30 03:44:13;;;;;;;3.13;1.50;;;14.40;71.70;14.50;96186.00;;;;5139674;27;20193;-79
2023/03/30 03:46:40;;;;;;;3.43;1.43;;;14.40;72.00;14.50;96187.00;;;;5132461;27;20286;-80
2023/03/30 03:49:10;;;;;;;2.13;1.20;;;14.40;72.10;14.50;96208.00;;;;5117325;27;20226;-79
2023/03/30 03:51:38;;;;;;;3.33;1.40;;;14.40;72.40;14.50;96190.00;;;;5117332;28;20221;-79
2023/03/30 03:54:06;;;;;;;1.87;1.27;;;14.40;72.40;14.60;96237.00;;;;5131107;27;20193;-79
2023/03/30 03:56:33;;;;;;;2.40;1.27;;;14.40;72.60;14.60;96222.00;;;;5138499;27;20254;-80
2023/03/30 03:59:02;;;;;;;3.93;1.70;;;14.40;72.90;14.60;96236.00;;;;5124888;27;20309;-79
2023/03/30 04:01:29;;;;;;;2.63;1.67;;;14.40;72.90;14.50;96260.00;;;;5128783;27;20191;-80
2023/03/30 04:03:58;;;;;;;4.30;1.13;;;14.40;73.10;14.50;96255.00;;;;5128760;27;20273;-79
2023/03/30 04:06:27;;;;;;;3.80;1.17;;;14.40;73.00;14.50;96248.00;;;;5124263;27;20201;-79
2023/03/30 04:08:55;;;;;;;2.77;1.50;;;14.40;73.00;14.50;96239.00;;;;5121457;27;20214;-79
2023/03/30 04:11:22;;;;;;;2.60;1.40;;;14.40;73.20;14.50;96237.00;;;;5130370;27;20224;-79
2023/03/30 04:13:49;;;;;;;3.27;1.33;;;14.40;73.50;14.50;96235.00;;;;5127727;27;20202;-80
2023/03/30 04:16:17;;;;;;;3.47;1.63;;;14.40;73.60;14.50;96236.00;;;;5116984;28;20286;-79
2023/03/30 04:18:44;;;;;;;3.83;1.60;;;14.40;74.00;14.50;96239.00;;;;5114787;28;20273;-79
2023/03/30 04:21:12;;;;;;;5.90;1.90;;;14.40;74.20;14.50;96242.00;;;;5126632;28;20627;-80
2023/03/30 04:23:44;;;;;;;4.33;1.70;;;14.40;74.50;14.50;96238.00;;;;5120641;28;20201;-79
2023/03/30 04:26:12;;;;;;;3.70;1.90;;;14.40;74.80;14.50;96247.00;;;;5110914;28;20694;-79
2023/03/30 04:28:40;;;;;;;3.10;1.33;;;14.40;74.70;14.60;96248.00;;;;5121391;28;20209;-79
2023/03/30 04:31:11;;;;;;;5.17;1.57;;;14.50;75.00;14.60;96265.00;;;;5131559;28;20590;-79
2023/03/30 04:33:51;;;;;;;4.77;1.47;;;14.50;75.30;14.70;96268.00;;;;5132333;27;20200;-79
2023/03/30 04:36:19;;;;;;;4.47;1.50;;;14.50;75.60;14.70;96283.00;;;;5116798;27;20201;-79
2023/03/30 04:38:57;;;;;;;7.33;1.93;;;14.60;75.80;14.80;96285.00;;;;5120222;28;20186;-80
2023/03/30 04:41:32;;;;;;;4.17;1.27;;;14.60;76.00;14.80;96286.00;;;;5119748;27;20205;-79
2023/03/30 04:44:03;;;;;;;3.30;1.33;;;14.70;76.00;14.90;96290.00;;;;5111059;28;20200;-79
2023/03/30 04:46:31;;;;;;;4.77;1.80;;;14.70;76.10;14.90;96293.00;;;;5134582;27;20285;-79
2023/03/30 04:48:59;;;;;;;4.67;1.60;;;14.80;76.30;15.00;96290.00;;;;5129671;28;20282;-80
2023/03/30 04:51:27;;;;;;;3.00;1.27;;;14.80;76.30;15.00;96281.00;;;;5118021;28;20261;-80
2023/03/30 04:53:56;;;;;;;5.70;1.50;;;14.80;76.30;15.10;96281.00;;;;5126840;27;20220;-79
2023/03/30 04:56:25;;;;;;;4.80;2.00;;;14.90;76.50;15.10;96279.00;;;;5117728;27;20195;-79
2023/03/30 04:58:52;;;;;;;2.73;1.80;;;14.90;76.40;15.10;96268.00;;;;5109598;27;20301;-79
2023/03/30 05:01:19;;;;;;;3.80;1.60;;;15.00;76.40;15.20;96261.00;;;;5125009;27;20198;-80
2023/03/30 05:03:46;;;;;;;7.00;2.30;;;15.00;76.30;15.20;96263.00;;;;5137195;27;20225;-79
2023/03/30 05:06:14;;;;;;;4.63;2.23;;;15.00;76.40;15.10;96270.00;;;;5125806;27;20285;-79
2023/03/30 05:08:41;;;;;;;5.37;1.80;;;15.00;76.40;15.20;96268.00;;;;5133915;27;20679;-80
2023/03/30 05:11:10;;;;;;;4.07;1.80;;;15.00;76.60;15.10;96265.00;;;;5141607;27;20220;-79
2023/03/30 05:13:39;;;;;;;8.10;1.93;;;15.00;77.10;15.20;96268.00;;;;5137901;27;20245;-79
2023/03/30 05:16:08;;;;;;;6.33;2.40;;;15.00;77.10;15.20;96250.00;;;;5134535;27;20190;-79
2023/03/30 05:18:37;;;;;;;7.03;2.77;;;15.00;77.40;15.20;96249.00;;;;5116079;28;20267;-79
2023/03/30 05:21:05;;;;;;;5.33;2.27;;;15.10;77.70;15.20;96253.00;;;;5102384;28;20199;-79
2023/03/30 05:23:32;;;;;;;5.47;2.30;;;15.10;77.80;15.20;96250.00;;;;5126434;27;20278;-79
2023/03/30 05:26:00;;;;;;;4.67;1.90;;;15.10;78.00;15.30;96242.00;;;;5133929;27;20201;-79
2023/03/30 05:28:29;;;;;;;5.43;2.50;;;15.10;78.20;15.30;96237.00;;;;5127244;27;20262;-79
2023/03/30 05:30:56;;;;;;;7.73;2.50;;;15.20;78.40;15.30;96236.00;;;;5119303;28;20217;-79
2023/03/30 05:33:23;;;;;;;5.90;2.00;;;15.20;78.40;15.30;96227.00;;;;5125342;27;20195;-79
2023/03/30 05:35:51;;;;;;;5.37;1.93;;;15.20;78.40;15.30;96231.00;;;;5115941;28;20561;-78
2023/03/30 05:38:19;;;;;;;7.57;2.10;;;15.20;78.50;15.40;96228.00;;;;5131463;27;20208;-78
2023/03/30 05:40:46;;;;;;;6.43;2.23;;;15.20;78.70;15.40;96227.00;;;;5145846;27;20335;-80
2023/03/30 05:43:14;;;;;;;6.83;2.03;;;15.20;78.80;15.40;96227.00;;;;5135151;27;20190;-80
2023/03/30 05:45:43;;;;;;;3.30;1.50;;;15.20;79.10;15.50;96214.00;;;;5132667;27;20194;-79
2023/03/30 05:48:10;;;;;;;5.37;1.83;;;15.30;79.30;15.50;96223.00;;;;5133895;27;20282;-80
2023/03/30 05:50:37;;;;;;;3.50;1.87;;;15.30;79.40;15.60;96216.00;;;;5125663;28;20249;-81
2023/03/30 05:53:05;;;;;;;4.40;1.47;;;15.40;79.60;15.60;96214.00;;;;5117794;28;20238;-81
2023/03/30 05:55:32;;;;;;;4.13;1.83;;;15.40;79.50;15.70;96219.00;;;;5132422;27;20285;-79
2023/03/30 05:58:00;;;;;;;6.53;2.23;;;15.40;79.50;15.70;96209.00;;;;5123181;27;20190;-80
2023/03/30 06:00:27;;;;;;;5.57;1.70;;;15.40;79.50;15.70;96215.00;;;;5146866;27;20217;-80
2023/03/30 06:02:56;;;;;;;5.57;1.80;;;15.50;79.40;15.70;96197.00;;;;5137420;27;20202;-82
2023/03/30 06:05:24;;;;;;;3.33;1.63;;;15.50;79.50;15.80;96205.00;;;;5123518;27;20198;-80
2023/03/30 06:07:52;;;;;;;5.87;2.13;;;15.50;79.60;15.80;96202.00;;;;5111341;27;20186;-81
2023/03/30 06:10:19;;;;;;;5.00;2.20;;;15.60;79.60;15.80;96191.00;;;;5114461;27;20229;-80
2023/03/30 06:12:46;;;;;;;3.83;1.77;;;15.60;79.70;15.80;96184.00;;;;5136201;27;20291;-79
2023/03/30 06:15:13;;;;;;;4.00;1.60;;;15.60;79.70;15.90;96182.00;;;;5119587;27;20191;-80
2023/03/30 06:17:41;;;;;;;4.70;2.07;;;15.60;79.80;15.90;96182.00;;;;5120749;27;20285;-80
2023/03/30 06:20:12;;;;;;;5.70;1.93;;;15.70;79.80;15.90;96167.00;;;;5134724;27;20249;-81
2023/03/30 06:22:41;;;;;;;4.67;2.13;;;15.70;80.00;16.00;96169.00;;;;5109996;28;20711;-81
2023/03/30 06:25:12;;;;;;;36.90;21.87;;;15.70;79.90;16.00;96166.00;;;;5122385;27;20746;-81
2023/03/30 06:27:39;;;;;;;6.03;2.87;;;15.80;79.90;16.10;96172.00;;;;5125340;27;20189;-81
2023/03/30 06:30:10;;;;;;;2.77;1.67;;;15.80;80.00;16.10;96169.00;;;;5129526;27;20706;-82
2023/03/30 06:32:37;;;;;;;2.70;1.60;;;15.80;80.00;16.10;96167.00;;;;5117895;28;20225;-81
2023/03/30 06:35:06;;;;;;;3.40;1.80;;;15.80;80.00;16.10;96162.00;;;;5121460;27;20189;-81
2023/03/30 06:37:35;;;;;;;6.33;2.20;;;15.90;80.10;16.20;96159.00;;;;5129706;27;20285;-81
2023/03/30 06:40:07;;;;;;;4.80;1.87;;;15.90;80.10;16.20;96151.00;;;;5124648;27;20289;-80
2023/03/30 06:42:35;;;;;;;5.63;2.20;;;15.90;80.10;16.30;96143.00;;;;5097659;28;20199;-81
2023/03/30 06:45:03;;;;;;;5.27;1.90;;;16.00;80.40;16.30;96143.00;;;;5108409;27;20230;-81
2023/03/30 06:47:31;;;;;;;4.43;2.00;;;16.00;80.60;16.40;96146.00;;;;5133032;27;20559;-81
2023/03/30 06:49:58;;;;;;;4.40;2.07;;;16.00;80.70;16.40;96137.00;;;;5122950;27;20218;-81
2023/03/30 06:52:26;;;;;;;6.00;2.93;;;16.10;80.90;16.50;96126.00;;;;5131135;27;20248;-81
2023/03/30 06:54:55;;;;;;;5.53;2.23;;;16.10;81.00;16.50;96122.00;;;;5125460;27;20258;-80
2023/03/30 06:57:24;;;;;;;4.80;1.80;;;16.20;81.00;16.50;96130.00;;;;5117199;27;20274;-81
2023/03/30 06:59:52;;;;;;;3.57;1.60;;;16.20;80.70;16.60;96123.00;;;;5103719;27;20231;-80
2023/03/30 07:02:20;;;;;;;7.97;2.30;;;16.20;80.50;16.60;96120.00;;;;5092042;28;20306;-81
2023/03/30 07:04:49;;;;;;;2.63;1.67;;;16.20;80.50;16.60;96122.00;;;;5116999;27;20201;-81
2023/03/30 07:07:16;;;;;;;5.97;1.47;;;16.30;80.60;16.60;96120.00;;;;5111493;27;20206;-82
2023/03/30 07:09:44;;;;;;;4.23;1.60;;;16.30;80.70;16.60;96120.00;;;;5116410;28;20243;-81
2023/03/30 07:12:13;;;;;;;6.10;1.87;;;16.30;80.70;16.60;96116.00;;;;5117838;27;20215;-81
2023/03/30 07:14:40;;;;;;;4.30;1.90;;;16.30;80.60;16.70;96105.00;;;;5115860;27;21547;-81
2023/03/30 07:17:08;;;;;;;7.20;1.97;;;16.40;80.60;16.70;96103.00;;;;5136240;27;20214;-80
2023/03/30 07:19:36;;;;;;;6.10;1.30;;;16.40;80.50;16.70;96109.00;;;;5139830;27;20728;-81
2023/03/30 07:22:03;;;;;;;3.13;1.57;;;16.40;80.30;16.80;96093.00;;;;5134968;27;20704;-81
2023/03/30 07:24:32;;;;;;;4.57;1.90;;;16.40;80.30;16.80;96092.00;;;;5136511;27;20589;-80
2023/03/30 07:27:00;;;;;;;3.87;1.40;;;16.50;80.40;16.80;96084.00;;;;5124661;27;20859;-81
2023/03/30 07:29:29;;;;;;;4.17;2.10;;;16.50;80.40;16.90;96088.00;;;;5114712;27;20250;-81
2023/03/30 07:31:57;;;;;;;4.50;2.63;;;16.50;80.40;16.90;96092.00;;;;5124764;27;20226;-80
2023/03/30 07:34:24;;;;;;;4.53;1.50;;;16.60;80.50;17.00;96083.00;;;;5123334;27;20207;-81
2023/03/30 07:36:52;;;;;;;2.53;1.67;;;16.60;80.60;17.00;96090.00;;;;5099659;28;20230;-81
2023/03/30 07:39:19;;;;;;;6.03;1.77;;;16.70;80.70;17.10;96080.00;;;;5117589;28;20222;-81
2023/03/30 07:41:47;;;;;;;4.40;1.77;;;16.70;80.60;17.20;96077.00;;;;5117815;28;20195;-81
2023/03/30 07:44:14;;;;;;;3.20;1.57;;;16.80;80.40;17.20;96079.00;;;;5117646;28;20206;-81
2023/03/30 07:46:43;;;;;;;4.30;1.50;;;16.80;80.00;17.30;96078.00;;;;5116261;28;20198;-81
2023/03/30 07:49:10;;;;;;;3.20;1.50;;;16.90;80.10;17.40;96079.00;;;;5116806;27;20248;-81
2023/03/30 07:51:38;;;;;;;4.13;1.40;;;16.90;80.00;17.40;96078.00;;;;5126795;27;20195;-81
2023/03/30 07:54:06;;;;;;;3.50;1.83;;;17.00;79.70;17.50;96083.00;;;;5132814;27;20245;-81
2023/03/30 07:56:33;;;;;;;5.40;1.53;;;17.00;79.50;17.50;96083.00;;;;5116124;28;20225;-81
2023/03/30 07:59:01;;;;;;;3.37;1.37;;;17.10;79.70;17.60;96089.00;;;;5100178;28;20210;-81
2023/03/30 08:01:28;;;;;;;3.90;1.40;;;17.10;79.50;17.60;96086.00;;;;5133947;27;20228;-80
2023/03/30 08:03:57;;;;;;;6.93;1.57;;;17.10;79.40;17.60;96092.00;;;;5132939;27;20659;-81
2023/03/30 08:06:25;;;;;;;4.13;1.47;;;17.20;79.20;17.60;96111.00;;;;5134720;27;20797;-81
2023/03/30 08:08:52;;;;;;;4.33;1.40;;;17.20;79.30;17.60;96111.00;;;;5115349;27;20417;-81
2023/03/30 08:11:20;;;;;;;3.23;1.67;;;17.20;79.30;17.60;96114.00;;;;5115545;28;20200;-81
2023/03/30 08:13:48;;;;;;;3.77;1.60;;;17.30;79.30;17.70;96112.00;;;;5114424;28;20656;-80
2023/03/30 08:16:15;;;;;;;3.03;1.73;;;17.30;79.40;17.70;96104.00;;;;5115231;28;20282;-81
2023/03/30 08:18:43;;;;;;;3.53;1.50;;;17.30;79.20;17.70;96091.00;;;;5120708;28;20222;-81
2023/03/30 08:21:11;;;;;;;3.47;1.60;;;17.30;79.10;17.70;96093.00;;;;5121263;28;20199;-79
2023/03/30 08:23:39;;;;;;;3.63;1.70;;;17.30;79.00;17.80;96084.00;;;;5121195;28;20294;-79
2023/03/30 08:26:07;;;;;;;3.63;1.60;;;17.40;79.10;17.80;96076.00;;;;5125509;28;20220;-80
2023/03/30 08:28:35;;;;;;;5.17;1.83;;;17.40;78.90;17.80;96078.00;;;;5125429;27;20214;-79
2023/03/30 08:31:07;;;;;;;4.47;1.20;;;17.40;78.70;17.90;96065.00;;;;5134512;27;20201;-80
2023/03/30 08:33:35;;;;;;;5.33;1.80;;;17.40;78.60;17.90;96046.00;;;;5150103;27;20217;-80
2023/03/30 08:36:02;;;;;;;3.67;2.60;;;17.50;78.50;17.90;96052.00;;;;5139181;27;20662;-80
2023/03/30 08:38:31;;;;;;;5.90;2.03;;;17.50;78.20;17.90;96063.00;;;;5123145;27;20752;-81
2023/03/30 08:40:59;;;;;;;2.93;1.47;;;17.50;78.00;18.00;96064.00;;;;5117377;28;20237;-80
2023/03/30 08:43:42;;;;;;;3.90;1.70;;;17.50;78.20;18.00;96054.00;;;;5117877;28;20289;-80
2023/03/30 08:46:15;;;;;;;5.30;2.00;;;17.50;78.10;18.00;96051.00;;;;5127081;27;20919;-80
2023/03/30 08:48:44;;;;;;;5.30;1.50;;;17.60;78.00;18.00;96050.00;;;;5139047;27;20204;-80
2023/03/30 08:51:23;;;;;;;3.37;1.67;;;17.60;77.70;18.10;96064.00;;;;5137749;27;20658;-80
2023/03/30 08:53:57;;;;;;;2.43;1.30;;;17.60;77.30;18.00;96077.00;;;;5137676;27;20598;-79
2023/03/30 08:56:31;;;;;;;8.67;1.77;;;17.60;77.30;18.10;96095.00;;;;5136654;27;20179;-80
2023/03/30 08:59:13;;;;;;;4.33;1.50;;;17.70;77.30;18.00;96101.00;;;;5103372;27;20262;-80
2023/03/30 09:01:50;;;;;;;3.47;1.40;;;17.70;77.20;18.00;96106.00;;;;5127838;27;20830;-80
2023/03/30 09:04:31;;;;;;;3.27;1.20;;;17.70;77.30;18.00;96094.00;;;;5139264;27;20273;-80
2023/03/30 09:07:04;;;;;;;4.43;1.73;;;17.70;77.20;18.00;96069.00;;;;5151659;27;20210;-80
2023/03/30 09:09:45;;;;;;;2.30;1.40;;;17.70;76.90;18.00;96062.00;;;;5118423;28;20302;-80
2023/03/30 09:12:24;;;;;;;3.40;1.77;;;17.70;76.50;18.00;96056.00;;;;5118993;28;20290;-80
2023/03/30 09:14:58;;;;;;;3.20;1.40;;;17.70;76.60;17.90;96057.00;;;;5118029;28;20194;-80
2023/03/30 09:17:32;;;;;;;5.27;1.50;;;17.60;76.40;18.00;96059.00;;;;5116781;28;20278;-78
2023/03/30 09:20:08;;;;;;;3.20;1.40;;;17.60;76.30;18.00;96044.00;;;;5123255;27;20253;-80
2023/03/30 09:22:40;;;;;;;2.63;1.40;;;17.60;76.40;18.10;96041.00;;;;5130963;27;20192;-80
2023/03/30 09:25:18;;;;;;;4.23;1.93;;;17.70;76.90;18.20;96043.00;;;;5137381;27;20263;-80
2023/03/30 09:28:01;;;;;;;4.13;1.77;;;17.70;77.10;18.40;96045.00;;;;5139505;27;20193;-80
2023/03/30 09:30:37;;;;;;;5.20;1.77;;;17.80;77.90;18.50;96041.00;;;;5138943;27;20256;-80
2023/03/30 09:33:17;;;;;;;3.23;1.60;;;17.90;77.80;18.70;96059.00;;;;5128241;27;20261;-80
2023/03/30 09:36:00;;;;;;;3.30;1.60;;;18.00;77.90;18.90;96056.00;;;;5116613;28;20681;-80
2023/03/30 09:38:27;;;;;;;3.83;1.83;;;18.10;78.80;19.10;96055.00;;;;5119128;28;20238;-80
2023/03/30 09:41:16;;;;;;;3.67;1.93;;;18.20;79.20;19.50;96062.00;;;;5117980;28;20761;-80
2023/03/30 09:43:46;;;;;;;3.80;1.80;;;18.50;80.00;19.70;96067.00;;;;5117285;28;20179;-80
2023/03/30 09:46:16;;;;;;;3.40;1.63;;;18.70;80.40;19.90;96073.00;;;;5099518;28;20199;-79
2023/03/30 09:48:46;;;;;;;4.33;1.30;;;18.90;80.30;20.10;96082.00;;;;5118319;28;20234;-80
2023/03/30 09:51:24;;;;;;;4.77;1.67;;;19.00;79.30;20.20;96079.00;;;;5117218;28;20199;-80
2023/03/30 09:53:58;;;;;;;2.97;1.60;;;19.20;78.60;20.20;96071.00;;;;5116621;28;20219;-80
2023/03/30 09:56:38;;;;;;;5.33;1.30;;;19.40;78.70;20.30;96063.00;;;;5117385;28;20194;-80
2023/03/30 09:59:28;;;;;;;3.37;1.10;;;19.50;77.70;20.40;96056.00;;;;5117367;28;20211;-80
2023/03/30 10:02:17;;;;;;;3.77;1.57;;;19.60;76.60;20.50;96063.00;;;;5121086;28;20271;-80
2023/03/30 10:05:05;;;;;;;3.83;1.40;;;19.70;75.80;20.50;96055.00;;;;5115499;28;20636;-80
2023/03/30 10:07:36;;;;;;;3.47;1.07;;;19.80;75.00;20.60;96070.00;;;;5120422;27;20233;-80
2023/03/30 10:10:27;;;;;;;4.70;1.53;;;19.90;76.10;20.70;96076.00;;;;5141594;27;20219;-80
2023/03/30 10:13:03;;;;;;;4.17;1.60;;;20.00;75.60;20.80;96083.00;;;;5141362;27;20729;-80
2023/03/30 10:15:31;;;;;;;3.10;1.40;;;20.10;75.60;20.80;96071.00;;;;5138881;27;20872;-80
2023/03/30 10:18:24;;;;;;;1.40;1.30;;;20.10;75.20;20.90;96077.00;;;;5132712;27;20302;-80
2023/03/30 10:20:54;;;;;;;2.07;1.10;;;20.20;75.00;21.00;96078.00;;;;5142180;27;20225;-80
2023/03/30 10:23:23;;;;;;;2.10;1.10;;;20.30;75.30;21.00;96078.00;;;;5142735;27;20292;-80
2023/03/30 10:25:51;;;;;;;3.77;1.30;;;20.30;75.00;21.00;96070.00;;;;5143248;27;20194;-80
2023/03/30 10:28:26;;;;;;;2.77;1.27;;;20.40;74.00;21.00;96066.00;;;;5141821;27;20579;-80
2023/03/30 10:31:01;;;;;;;3.10;1.40;;;20.50;73.90;21.10;96077.00;;;;5134038;27;20297;-80
2023/03/30 10:33:31;;;;;;;3.60;1.43;;;20.50;73.70;21.10;96077.00;;;;5140230;27;20697;-79
2023/03/30 10:36:01;;;;;;;2.80;1.47;;;20.60;73.60;21.20;96084.00;;;;5144277;27;20193;-82
2023/03/30 10:38:35;;;;;;;1.87;1.30;;;20.60;73.10;21.20;96083.00;;;;5127523;27;20285;-79
2023/03/30 10:41:11;;;;;;;4.60;1.83;;;20.70;72.80;21.30;96085.00;;;;5122637;27;20209;-80
2023/03/30 10:43:41;;;;;;;6.17;1.37;;;20.70;72.70;21.30;96095.00;;;;5121791;28;20274;-80
2023/03/30 10:46:14;;;;;;;3.80;1.50;;;20.80;71.70;21.30;96108.00;;;;5109256;28;20206;-79
2023/03/30 10:49:08;;;;;;;4.40;1.63;;;20.80;71.10;21.20;96102.00;;;;5140924;27;20258;-80
2023/03/30 10:51:48;;;;;;;4.33;2.00;;;20.80;70.20;21.10;96100.00;;;;5128869;27;20194;-80
2023/03/30 10:54:26;;;;;;;3.37;1.40;;;20.70;70.00;21.00;96113.00;;;;5148963;27;20245;-80
2023/03/30 10:57:03;;;;;;;4.07;1.73;;;20.70;70.60;21.10;96130.00;;;;5148045;27;20204;-80
2023/03/30 11:00:08;;;;;;;4.10;1.73;;;20.60;70.40;21.00;96138.00;;;;5146218;27;20218;-80
2023/03/30 11:03:00;;;;;;;3.93;1.80;;;20.60;68.80;21.00;96125.00;;;;5129022;27;20200;-81
2023/03/30 11:05:34;;;;;;;4.83;1.40;;;20.60;69.10;20.90;96128.00;;;;5143583;27;20205;-81
2023/03/30 11:08:05;;;;;;;5.10;1.83;;;20.50;69.60;20.90;96139.00;;;;5125672;27;20201;-80
2023/03/30 11:10:39;;;;;;;4.10;1.70;;;20.50;69.80;20.90;96142.00;;;;5115469;28;20297;-81
2023/03/30 11:13:14;;;;;;;4.10;1.90;;;20.40;69.60;20.90;96144.00;;;;5114753;28;20695;-80
2023/03/30 11:15:49;;;;;;;4.47;2.00;;;20.40;69.70;20.90;96157.00;;;;5134828;27;20554;-81
2023/03/30 11:18:23;;;;;;;5.40;2.37;;;20.40;70.20;20.90;96168.00;;;;5137465;27;20193;-81